sensor_id;sensor_type;location;lat;lon;timestamp;P1;durP1;ratioP1;P2;durP2;ratioP2
4432;SDS011;2229;48.708;9.706;2024-03-22T00:00:49;8.33;;;3.00;;
4432;SDS011;2229;48.708;9.706;2024-03-22T00:03:16;6.20;;;3.53;;
4432;SDS011;2229;48.708;9.706;2024-03-22T00:05:45;8.13;;;3.30;;
4432;SDS011;2229;48.708;9.706;2024-03-22T00:08:12;5.03;;;3.43;;
4432;SDS011;2229;48.708;9.706;2024-03-22T00:10:39;6.63;;;3.17;;
4432;SDS011;2229;48.708;9.706;2024-03-22T00:13:06;3.80;;;2.70;;
4432;SDS011;2229;48.708;9.706;2024-03-22T00:15:32;5.07;;;2.70;;
4432;SDS011;2229;48.708;9.706;2024-03-22T00:17:59;4.17;;;2.40;;
4432;SDS011;2229;48.708;9.706;2024-03-22T00:20:25;3.53;;;1.70;;
4432;SDS011;2229;48.708;9.706;2024-03-22T00:22:53;4.70;;;2.50;;
4432;SDS011;2229;48.708;9.706;2024-03-22T00:25:19;4.70;;;2.40;;
4432;SDS011;2229;48.708;9.706;2024-03-22T00:27:50;2.40;;;1.93;;
4432;SDS011;2229;48.708;9.706;2024-03-22T00:30:16;5.50;;;2.83;;
4432;SDS011;2229;48.708;9.706;2024-03-22T00:32:43;2.73;;;1.67;;
4432;SDS011;2229;48.708;9.706;2024-03-22T00:35:14;6.43;;;2.70;;
4432;SDS011;2229;48.708;9.706;2024-03-22T00:37:41;5.20;;;2.37;;
4432;SDS011;2229;48.708;9.706;2024-03-22T00:40:10;7.83;;;3.10;;
4432;SDS011;2229;48.708;9.706;2024-03-22T00:42:37;4.10;;;2.70;;
4432;SDS011;2229;48.708;9.706;2024-03-22T00:45:05;6.43;;;2.90;;
4432;SDS011;2229;48.708;9.706;2024-03-22T00:47:32;4.17;;;2.23;;
4432;SDS011;2229;48.708;9.706;2024-03-22T00:49:58;9.70;;;3.63;;
4432;SDS011;2229;48.708;9.706;2024-03-22T00:52:27;9.83;;;3.63;;
4432;SDS011;2229;48.708;9.706;2024-03-22T00:54:53;9.47;;;4.07;;
4432;SDS011;2229;48.708;9.706;2024-03-22T00:57:20;11.13;;;3.87;;
4432;SDS011;2229;48.708;9.706;2024-03-22T00:59:46;6.80;;;4.40;;
4432;SDS011;2229;48.708;9.706;2024-03-22T01:02:15;8.23;;;3.33;;
4432;SDS011;2229;48.708;9.706;2024-03-22T01:04:41;7.47;;;5.03;;
4432;SDS011;2229;48.708;9.706;2024-03-22T01:07:08;6.83;;;3.10;;
4432;SDS011;2229;48.708;9.706;2024-03-22T01:09:35;7.60;;;3.50;;
4432;SDS011;2229;48.708;9.706;2024-03-22T01:12:02;8.10;;;3.70;;
4432;SDS011;2229;48.708;9.706;2024-03-22T01:14:28;8.10;;;4.40;;
4432;SDS011;2229;48.708;9.706;2024-03-22T01:16:55;9.20;;;3.63;;
4432;SDS011;2229;48.708;9.706;2024-03-22T01:19:29;7.00;;;3.27;;
4432;SDS011;2229;48.708;9.706;2024-03-22T01:21:56;19.33;;;3.40;;
4432;SDS011;2229;48.708;9.706;2024-03-22T01:24:22;7.23;;;3.80;;
4432;SDS011;2229;48.708;9.706;2024-03-22T01:26:49;6.93;;;3.23;;
4432;SDS011;2229;48.708;9.706;2024-03-22T01:29:15;10.30;;;3.00;;
4432;SDS011;2229;48.708;9.706;2024-03-22T01:31:42;9.63;;;4.50;;
4432;SDS011;2229;48.708;9.706;2024-03-22T01:34:09;12.77;;;3.83;;
4432;SDS011;2229;48.708;9.706;2024-03-22T01:36:37;6.10;;;2.90;;
4432;SDS011;2229;48.708;9.706;2024-03-22T01:39:03;9.30;;;3.47;;
4432;SDS011;2229;48.708;9.706;2024-03-22T01:41:30;4.57;;;2.77;;
4432;SDS011;2229;48.708;9.706;2024-03-22T01:43:57;6.70;;;3.40;;
4432;SDS011;2229;48.708;9.706;2024-03-22T01:46:24;4.90;;;2.47;;
4432;SDS011;2229;48.708;9.706;2024-03-22T01:48:51;6.60;;;3.50;;
4432;SDS011;2229;48.708;9.706;2024-03-22T01:51:19;6.50;;;3.33;;
4432;SDS011;2229;48.708;9.706;2024-03-22T01:53:49;10.10;;;3.40;;
4432;SDS011;2229;48.708;9.706;2024-03-22T01:56:17;4.50;;;3.03;;
4432;SDS011;2229;48.708;9.706;2024-03-22T01:58:44;6.47;;;3.30;;
4432;SDS011;2229;48.708;9.706;2024-03-22T02:01:14;12.20;;;3.80;;
4432;SDS011;2229;48.708;9.706;2024-03-22T02:03:40;6.63;;;3.57;;
4432;SDS011;2229;48.708;9.706;2024-03-22T02:06:11;7.93;;;4.00;;
4432;SDS011;2229;48.708;9.706;2024-03-22T02:08:37;12.40;;;5.67;;
4432;SDS011;2229;48.708;9.706;2024-03-22T02:11:07;8.13;;;4.23;;
4432;SDS011;2229;48.708;9.706;2024-03-22T02:13:33;8.17;;;3.33;;
4432;SDS011;2229;48.708;9.706;2024-03-22T02:16:02;6.83;;;3.60;;
4432;SDS011;2229;48.708;9.706;2024-03-22T02:18:28;6.67;;;3.70;;
4432;SDS011;2229;48.708;9.706;2024-03-22T02:20:56;8.27;;;4.30;;
4432;SDS011;2229;48.708;9.706;2024-03-22T02:23:26;5.70;;;3.47;;
4432;SDS011;2229;48.708;9.706;2024-03-22T02:26:02;5.97;;;3.30;;
4432;SDS011;2229;48.708;9.706;2024-03-22T02:28:29;7.87;;;3.43;;
4432;SDS011;2229;48.708;9.706;2024-03-22T02:30:58;7.57;;;3.90;;
4432;SDS011;2229;48.708;9.706;2024-03-22T02:33:24;11.03;;;3.90;;
4432;SDS011;2229;48.708;9.706;2024-03-22T02:35:52;5.80;;;3.00;;
4432;SDS011;2229;48.708;9.706;2024-03-22T02:38:18;7.13;;;3.40;;
4432;SDS011;2229;48.708;9.706;2024-03-22T02:40:48;5.73;;;2.60;;
4432;SDS011;2229;48.708;9.706;2024-03-22T02:43:15;7.10;;;3.10;;
4432;SDS011;2229;48.708;9.706;2024-03-22T02:45:44;7.10;;;3.30;;
4432;SDS011;2229;48.708;9.706;2024-03-22T02:48:10;4.93;;;3.17;;
4432;SDS011;2229;48.708;9.706;2024-03-22T02:50:37;5.27;;;2.50;;
4432;SDS011;2229;48.708;9.706;2024-03-22T02:53:09;8.57;;;4.13;;
4432;SDS011;2229;48.708;9.706;2024-03-22T02:55:36;9.87;;;4.67;;
4432;SDS011;2229;48.708;9.706;2024-03-22T02:58:05;8.40;;;3.90;;
4432;SDS011;2229;48.708;9.706;2024-03-22T03:00:38;12.93;;;8.10;;
4432;SDS011;2229;48.708;9.706;2024-03-22T03:03:05;5.97;;;3.80;;
4432;SDS011;2229;48.708;9.706;2024-03-22T03:05:32;6.13;;;3.23;;
4432;SDS011;2229;48.708;9.706;2024-03-22T03:08:04;7.70;;;3.80;;
4432;SDS011;2229;48.708;9.706;2024-03-22T03:10:32;9.67;;;4.60;;
4432;SDS011;2229;48.708;9.706;2024-03-22T03:12:58;12.67;;;4.67;;
4432;SDS011;2229;48.708;9.706;2024-03-22T03:15:26;8.87;;;4.60;;
4432;SDS011;2229;48.708;9.706;2024-03-22T03:17:52;8.67;;;4.40;;
4432;SDS011;2229;48.708;9.706;2024-03-22T03:20:20;8.53;;;4.20;;
4432;SDS011;2229;48.708;9.706;2024-03-22T03:22:46;14.80;;;5.27;;
4432;SDS011;2229;48.708;9.706;2024-03-22T03:25:15;9.00;;;4.67;;
4432;SDS011;2229;48.708;9.706;2024-03-22T03:27:41;8.93;;;4.10;;
4432;SDS011;2229;48.708;9.706;2024-03-22T03:30:09;8.57;;;3.97;;
4432;SDS011;2229;48.708;9.706;2024-03-22T03:32:37;5.40;;;2.80;;
4432;SDS011;2229;48.708;9.706;2024-03-22T03:35:04;6.30;;;3.30;;
4432;SDS011;2229;48.708;9.706;2024-03-22T03:37:30;9.17;;;4.40;;
4432;SDS011;2229;48.708;9.706;2024-03-22T03:40:00;8.13;;;4.30;;
4432;SDS011;2229;48.708;9.706;2024-03-22T03:42:26;8.53;;;3.93;;
4432;SDS011;2229;48.708;9.706;2024-03-22T03:44:53;8.50;;;5.03;;
4432;SDS011;2229;48.708;9.706;2024-03-22T03:47:19;8.50;;;3.87;;
4432;SDS011;2229;48.708;9.706;2024-03-22T03:49:49;7.17;;;3.57;;
4432;SDS011;2229;48.708;9.706;2024-03-22T03:52:21;11.03;;;4.63;;
4432;SDS011;2229;48.708;9.706;2024-03-22T03:54:48;8.27;;;4.00;;
4432;SDS011;2229;48.708;9.706;2024-03-22T03:57:15;9.33;;;4.33;;
4432;SDS011;2229;48.708;9.706;2024-03-22T03:59:42;13.20;;;5.33;;
4432;SDS011;2229;48.708;9.706;2024-03-22T04:02:08;8.10;;;4.90;;
4432;SDS011;2229;48.708;9.706;2024-03-22T04:04:35;7.63;;;4.40;;
4432;SDS011;2229;48.708;9.706;2024-03-22T04:07:03;9.40;;;4.30;;
4432;SDS011;2229;48.708;9.706;2024-03-22T04:09:30;7.67;;;4.00;;
4432;SDS011;2229;48.708;9.706;2024-03-22T04:11:56;12.00;;;5.87;;
4432;SDS011;2229;48.708;9.706;2024-03-22T04:14:27;13.40;;;4.60;;
4432;SDS011;2229;48.708;9.706;2024-03-22T04:16:53;10.10;;;4.30;;
4432;SDS011;2229;48.708;9.706;2024-03-22T04:19:21;8.83;;;4.00;;
4432;SDS011;2229;48.708;9.706;2024-03-22T04:21:47;13.97;;;5.60;;
4432;SDS011;2229;48.708;9.706;2024-03-22T04:24:19;9.07;;;5.37;;
4432;SDS011;2229;48.708;9.706;2024-03-22T04:26:45;7.63;;;4.00;;
4432;SDS011;2229;48.708;9.706;2024-03-22T04:29:12;11.10;;;4.90;;
4432;SDS011;2229;48.708;9.706;2024-03-22T04:31:38;10.53;;;4.73;;
4432;SDS011;2229;48.708;9.706;2024-03-22T04:34:05;12.13;;;4.53;;
4432;SDS011;2229;48.708;9.706;2024-03-22T04:36:33;10.93;;;5.50;;
4432;SDS011;2229;48.708;9.706;2024-03-22T04:39:00;11.70;;;6.90;;
4432;SDS011;2229;48.708;9.706;2024-03-22T04:41:29;13.93;;;5.80;;
4432;SDS011;2229;48.708;9.706;2024-03-22T04:43:56;12.87;;;5.83;;
4432;SDS011;2229;48.708;9.706;2024-03-22T04:46:22;14.93;;;5.80;;
4432;SDS011;2229;48.708;9.706;2024-03-22T04:48:52;16.80;;;7.90;;
4432;SDS011;2229;48.708;9.706;2024-03-22T04:51:18;17.83;;;7.13;;
4432;SDS011;2229;48.708;9.706;2024-03-22T04:53:46;13.13;;;5.47;;
4432;SDS011;2229;48.708;9.706;2024-03-22T04:56:12;9.73;;;4.77;;
4432;SDS011;2229;48.708;9.706;2024-03-22T04:58:40;14.53;;;5.73;;
4432;SDS011;2229;48.708;9.706;2024-03-22T05:01:08;10.13;;;4.50;;
4432;SDS011;2229;48.708;9.706;2024-03-22T05:03:38;10.50;;;4.50;;
4432;SDS011;2229;48.708;9.706;2024-03-22T05:06:06;9.10;;;4.23;;
4432;SDS011;2229;48.708;9.706;2024-03-22T05:08:33;12.17;;;5.50;;
4432;SDS011;2229;48.708;9.706;2024-03-22T05:10:59;10.37;;;5.07;;
4432;SDS011;2229;48.708;9.706;2024-03-22T05:13:29;15.50;;;5.57;;
4432;SDS011;2229;48.708;9.706;2024-03-22T05:16:06;7.60;;;3.97;;
4432;SDS011;2229;48.708;9.706;2024-03-22T05:18:33;11.07;;;5.93;;
4432;SDS011;2229;48.708;9.706;2024-03-22T05:21:02;10.30;;;5.17;;
4432;SDS011;2229;48.708;9.706;2024-03-22T05:23:29;7.97;;;4.30;;
4432;SDS011;2229;48.708;9.706;2024-03-22T05:25:55;11.00;;;4.93;;
4432;SDS011;2229;48.708;9.706;2024-03-22T05:28:24;6.60;;;4.10;;
4432;SDS011;2229;48.708;9.706;2024-03-22T05:30:51;9.83;;;4.40;;
4432;SDS011;2229;48.708;9.706;2024-03-22T05:33:26;13.47;;;4.80;;
4432;SDS011;2229;48.708;9.706;2024-03-22T05:35:54;11.63;;;5.40;;
4432;SDS011;2229;48.708;9.706;2024-03-22T05:38:25;13.97;;;5.90;;
4432;SDS011;2229;48.708;9.706;2024-03-22T05:40:55;9.17;;;4.40;;
4432;SDS011;2229;48.708;9.706;2024-03-22T05:43:23;8.20;;;4.60;;
4432;SDS011;2229;48.708;9.706;2024-03-22T05:45:52;8.40;;;4.17;;
4432;SDS011;2229;48.708;9.706;2024-03-22T05:48:19;10.90;;;4.33;;
4432;SDS011;2229;48.708;9.706;2024-03-22T05:50:49;13.63;;;5.80;;
4432;SDS011;2229;48.708;9.706;2024-03-22T05:53:20;10.97;;;5.43;;
4432;SDS011;2229;48.708;9.706;2024-03-22T05:55:56;10.83;;;5.90;;
4432;SDS011;2229;48.708;9.706;2024-03-22T05:58:26;11.20;;;5.00;;
4432;SDS011;2229;48.708;9.706;2024-03-22T06:01:31;9.07;;;4.30;;
4432;SDS011;2229;48.708;9.706;2024-03-22T06:04:29;10.23;;;5.53;;
4432;SDS011;2229;48.708;9.706;2024-03-22T06:07:46;11.80;;;4.37;;
4432;SDS011;2229;48.708;9.706;2024-03-22T06:10:33;9.97;;;4.53;;
4432;SDS011;2229;48.708;9.706;2024-03-22T06:13:29;12.27;;;7.57;;
4432;SDS011;2229;48.708;9.706;2024-03-22T06:15:58;10.70;;;5.67;;
4432;SDS011;2229;48.708;9.706;2024-03-22T06:18:27;14.13;;;6.00;;
4432;SDS011;2229;48.708;9.706;2024-03-22T06:20:54;14.90;;;6.50;;
4432;SDS011;2229;48.708;9.706;2024-03-22T06:23:22;11.07;;;5.43;;
4432;SDS011;2229;48.708;9.706;2024-03-22T06:25:52;12.93;;;5.90;;
4432;SDS011;2229;48.708;9.706;2024-03-22T06:28:19;10.30;;;5.00;;
4432;SDS011;2229;48.708;9.706;2024-03-22T06:30:46;10.03;;;5.10;;
4432;SDS011;2229;48.708;9.706;2024-03-22T06:33:12;11.00;;;4.70;;
4432;SDS011;2229;48.708;9.706;2024-03-22T06:35:40;8.43;;;4.20;;
4432;SDS011;2229;48.708;9.706;2024-03-22T06:38:07;11.97;;;5.67;;
4432;SDS011;2229;48.708;9.706;2024-03-22T06:40:35;12.27;;;5.60;;
4432;SDS011;2229;48.708;9.706;2024-03-22T06:43:01;12.13;;;5.90;;
4432;SDS011;2229;48.708;9.706;2024-03-22T06:45:29;8.43;;;4.70;;
4432;SDS011;2229;48.708;9.706;2024-03-22T06:47:55;12.17;;;5.37;;
4432;SDS011;2229;48.708;9.706;2024-03-22T06:50:22;11.67;;;5.73;;
4432;SDS011;2229;48.708;9.706;2024-03-22T06:52:49;9.83;;;5.40;;
4432;SDS011;2229;48.708;9.706;2024-03-22T06:55:18;14.60;;;6.20;;
4432;SDS011;2229;48.708;9.706;2024-03-22T06:57:46;9.07;;;5.40;;
4432;SDS011;2229;48.708;9.706;2024-03-22T07:00:14;20.03;;;6.93;;
4432;SDS011;2229;48.708;9.706;2024-03-22T07:02:41;13.50;;;5.90;;
4432;SDS011;2229;48.708;9.706;2024-03-22T07:05:09;12.10;;;5.77;;
4432;SDS011;2229;48.708;9.706;2024-03-22T07:07:36;13.60;;;6.10;;
4432;SDS011;2229;48.708;9.706;2024-03-22T07:10:04;10.53;;;5.47;;
4432;SDS011;2229;48.708;9.706;2024-03-22T07:12:30;9.37;;;4.87;;
4432;SDS011;2229;48.708;9.706;2024-03-22T07:15:00;25.70;;;6.30;;
4432;SDS011;2229;48.708;9.706;2024-03-22T07:17:27;10.80;;;5.00;;
4432;SDS011;2229;48.708;9.706;2024-03-22T07:19:54;11.70;;;5.53;;
4432;SDS011;2229;48.708;9.706;2024-03-22T07:22:21;13.73;;;6.60;;
4432;SDS011;2229;48.708;9.706;2024-03-22T07:24:58;10.70;;;5.67;;
4432;SDS011;2229;48.708;9.706;2024-03-22T07:27:27;9.57;;;5.07;;
4432;SDS011;2229;48.708;9.706;2024-03-22T07:29:56;12.90;;;6.00;;
4432;SDS011;2229;48.708;9.706;2024-03-22T07:32:24;10.00;;;5.97;;
4432;SDS011;2229;48.708;9.706;2024-03-22T07:34:53;11.23;;;5.00;;
4432;SDS011;2229;48.708;9.706;2024-03-22T07:37:22;9.33;;;4.27;;
4432;SDS011;2229;48.708;9.706;2024-03-22T07:39:56;5.47;;;3.73;;
4432;SDS011;2229;48.708;9.706;2024-03-22T07:42:22;7.40;;;4.50;;
4432;SDS011;2229;48.708;9.706;2024-03-22T07:44:50;5.77;;;4.27;;
4432;SDS011;2229;48.708;9.706;2024-03-22T07:47:21;9.03;;;4.50;;
4432;SDS011;2229;48.708;9.706;2024-03-22T07:49:50;4.40;;;3.33;;
4432;SDS011;2229;48.708;9.706;2024-03-22T07:52:19;8.93;;;4.93;;
4432;SDS011;2229;48.708;9.706;2024-03-22T07:54:48;6.70;;;5.07;;
4432;SDS011;2229;48.708;9.706;2024-03-22T07:57:19;6.90;;;5.03;;
4432;SDS011;2229;48.708;9.706;2024-03-22T07:59:51;8.50;;;5.00;;
4432;SDS011;2229;48.708;9.706;2024-03-22T08:02:20;9.37;;;5.47;;
4432;SDS011;2229;48.708;9.706;2024-03-22T08:04:55;7.70;;;4.00;;
4432;SDS011;2229;48.708;9.706;2024-03-22T08:07:31;8.27;;;4.53;;
4432;SDS011;2229;48.708;9.706;2024-03-22T08:10:04;7.00;;;3.80;;
4432;SDS011;2229;48.708;9.706;2024-03-22T08:12:34;6.63;;;3.63;;
4432;SDS011;2229;48.708;9.706;2024-03-22T08:15:09;5.60;;;3.57;;
4432;SDS011;2229;48.708;9.706;2024-03-22T08:17:40;4.67;;;3.00;;
4432;SDS011;2229;48.708;9.706;2024-03-22T08:20:12;5.13;;;2.60;;
4432;SDS011;2229;48.708;9.706;2024-03-22T08:22:42;4.63;;;2.87;;
4432;SDS011;2229;48.708;9.706;2024-03-22T08:25:35;6.40;;;3.70;;
4432;SDS011;2229;48.708;9.706;2024-03-22T08:28:11;6.23;;;3.33;;
4432;SDS011;2229;48.708;9.706;2024-03-22T08:31:23;4.03;;;2.97;;
4432;SDS011;2229;48.708;9.706;2024-03-22T08:34:03;6.93;;;2.90;;
4432;SDS011;2229;48.708;9.706;2024-03-22T08:36:37;5.70;;;3.40;;
4432;SDS011;2229;48.708;9.706;2024-03-22T08:39:11;5.97;;;3.57;;
4432;SDS011;2229;48.708;9.706;2024-03-22T08:42:14;6.10;;;3.43;;
4432;SDS011;2229;48.708;9.706;2024-03-22T08:44:43;5.40;;;3.67;;
4432;SDS011;2229;48.708;9.706;2024-03-22T08:47:13;8.67;;;3.40;;
4432;SDS011;2229;48.708;9.706;2024-03-22T08:49:43;5.87;;;3.20;;
4432;SDS011;2229;48.708;9.706;2024-03-22T08:52:20;5.10;;;2.80;;
4432;SDS011;2229;48.708;9.706;2024-03-22T08:54:49;4.83;;;3.77;;
4432;SDS011;2229;48.708;9.706;2024-03-22T08:57:26;5.23;;;3.33;;
4432;SDS011;2229;48.708;9.706;2024-03-22T08:59:56;5.83;;;3.70;;
4432;SDS011;2229;48.708;9.706;2024-03-22T09:03:11;4.90;;;3.20;;
4432;SDS011;2229;48.708;9.706;2024-03-22T09:18:04;4.10;;;2.97;;
4432;SDS011;2229;48.708;9.706;2024-03-22T09:22:00;8.40;;;4.30;;
4432;SDS011;2229;48.708;9.706;2024-03-22T09:24:42;6.67;;;3.70;;
4432;SDS011;2229;48.708;9.706;2024-03-22T09:30:24;5.70;;;3.23;;
4432;SDS011;2229;48.708;9.706;2024-03-22T09:32:20;4.77;;;3.50;;
4432;SDS011;2229;48.708;9.706;2024-03-22T09:39:42;5.23;;;3.50;;
4432;SDS011;2229;48.708;9.706;2024-03-22T09:46:00;6.67;;;3.00;;
4432;SDS011;2229;48.708;9.706;2024-03-22T09:53:36;4.60;;;2.80;;
4432;SDS011;2229;48.708;9.706;2024-03-22T09:57:05;4.30;;;2.97;;
4432;SDS011;2229;48.708;9.706;2024-03-22T10:00:41;5.30;;;2.10;;
4432;SDS011;2229;48.708;9.706;2024-03-22T10:04:11;3.93;;;2.37;;
4432;SDS011;2229;48.708;9.706;2024-03-22T10:14:58;4.40;;;2.70;;
4432;SDS011;2229;48.708;9.706;2024-03-22T10:17:56;6.97;;;2.63;;
4432;SDS011;2229;48.708;9.706;2024-03-22T10:21:18;3.33;;;2.33;;
4432;SDS011;2229;48.708;9.706;2024-03-22T10:24:04;2.80;;;1.97;;
4432;SDS011;2229;48.708;9.706;2024-03-22T10:27:53;4.87;;;2.50;;
4432;SDS011;2229;48.708;9.706;2024-03-22T10:30:44;10.90;;;2.80;;
4432;SDS011;2229;48.708;9.706;2024-03-22T10:34:25;5.00;;;2.47;;
4432;SDS011;2229;48.708;9.706;2024-03-22T10:37:27;3.77;;;1.97;;
4432;SDS011;2229;48.708;9.706;2024-03-22T10:40:16;5.47;;;1.70;;
4432;SDS011;2229;48.708;9.706;2024-03-22T10:43:43;3.20;;;2.33;;
4432;SDS011;2229;48.708;9.706;2024-03-22T10:46:44;4.73;;;2.97;;
4432;SDS011;2229;48.708;9.706;2024-03-22T10:49:38;6.30;;;2.47;;
4432;SDS011;2229;48.708;9.706;2024-03-22T10:52:14;5.57;;;2.37;;
4432;SDS011;2229;48.708;9.706;2024-03-22T10:54:48;5.50;;;2.07;;
4432;SDS011;2229;48.708;9.706;2024-03-22T10:57:40;5.33;;;3.17;;
4432;SDS011;2229;48.708;9.706;2024-03-22T11:00:22;4.17;;;2.20;;
4432;SDS011;2229;48.708;9.706;2024-03-22T11:03:12;4.30;;;2.03;;
4432;SDS011;2229;48.708;9.706;2024-03-22T11:05:53;6.50;;;3.37;;
4432;SDS011;2229;48.708;9.706;2024-03-22T11:09:35;8.40;;;2.80;;
4432;SDS011;2229;48.708;9.706;2024-03-22T11:11:30;4.10;;;2.37;;
4432;SDS011;2229;48.708;9.706;2024-03-22T11:14:12;4.07;;;2.43;;
4432;SDS011;2229;48.708;9.706;2024-03-22T11:20:26;6.53;;;3.00;;
4432;SDS011;2229;48.708;9.706;2024-03-22T11:23:27;4.20;;;2.37;;
4432;SDS011;2229;48.708;9.706;2024-03-22T11:26:04;4.07;;;2.30;;
4432;SDS011;2229;48.708;9.706;2024-03-22T11:28:39;6.07;;;2.97;;
4432;SDS011;2229;48.708;9.706;2024-03-22T11:31:30;3.60;;;2.33;;
4432;SDS011;2229;48.708;9.706;2024-03-22T11:33:57;3.63;;;2.20;;
4432;SDS011;2229;48.708;9.706;2024-03-22T11:36:26;3.53;;;2.50;;
4432;SDS011;2229;48.708;9.706;2024-03-22T11:38:52;4.73;;;2.40;;
4432;SDS011;2229;48.708;9.706;2024-03-22T11:41:20;4.33;;;2.43;;
4432;SDS011;2229;48.708;9.706;2024-03-22T11:43:51;8.53;;;3.63;;
4432;SDS011;2229;48.708;9.706;2024-03-22T11:46:19;4.53;;;2.33;;
4432;SDS011;2229;48.708;9.706;2024-03-22T11:48:50;5.67;;;2.63;;
4432;SDS011;2229;48.708;9.706;2024-03-22T11:51:19;3.50;;;2.40;;
4432;SDS011;2229;48.708;9.706;2024-03-22T11:53:49;5.20;;;2.90;;
4432;SDS011;2229;48.708;9.706;2024-03-22T11:56:20;3.77;;;2.00;;
4432;SDS011;2229;48.708;9.706;2024-03-22T11:58:46;4.17;;;2.20;;
4432;SDS011;2229;48.708;9.706;2024-03-22T12:01:14;4.77;;;3.20;;
4432;SDS011;2229;48.708;9.706;2024-03-22T12:03:43;9.03;;;2.30;;
4432;SDS011;2229;48.708;9.706;2024-03-22T12:06:10;5.93;;;2.70;;
4432;SDS011;2229;48.708;9.706;2024-03-22T12:08:37;8.03;;;2.60;;
4432;SDS011;2229;48.708;9.706;2024-03-22T12:11:06;4.87;;;2.70;;
4432;SDS011;2229;48.708;9.706;2024-03-22T12:13:33;4.30;;;2.03;;
4432;SDS011;2229;48.708;9.706;2024-03-22T12:16:01;4.47;;;2.10;;
4432;SDS011;2229;48.708;9.706;2024-03-22T12:18:31;2.70;;;1.67;;
4432;SDS011;2229;48.708;9.706;2024-03-22T12:20:58;2.77;;;1.57;;
4432;SDS011;2229;48.708;9.706;2024-03-22T12:23:25;5.13;;;1.87;;
4432;SDS011;2229;48.708;9.706;2024-03-22T12:25:53;6.07;;;2.40;;
4432;SDS011;2229;48.708;9.706;2024-03-22T12:28:21;5.23;;;2.33;;
4432;SDS011;2229;48.708;9.706;2024-03-22T12:30:48;3.87;;;1.87;;
4432;SDS011;2229;48.708;9.706;2024-03-22T12:33:15;4.67;;;2.20;;
4432;SDS011;2229;48.708;9.706;2024-03-22T12:35:42;5.60;;;1.97;;
4432;SDS011;2229;48.708;9.706;2024-03-22T12:38:08;5.50;;;2.30;;
4432;SDS011;2229;48.708;9.706;2024-03-22T12:40:38;3.93;;;1.83;;
4432;SDS011;2229;48.708;9.706;2024-03-22T12:43:07;5.67;;;2.10;;
4432;SDS011;2229;48.708;9.706;2024-03-22T12:45:36;4.60;;;2.13;;
4432;SDS011;2229;48.708;9.706;2024-03-22T12:48:03;5.00;;;1.80;;
4432;SDS011;2229;48.708;9.706;2024-03-22T12:50:30;5.93;;;2.60;;
4432;SDS011;2229;48.708;9.706;2024-03-22T12:52:57;4.37;;;1.87;;
4432;SDS011;2229;48.708;9.706;2024-03-22T12:55:24;2.87;;;1.60;;
4432;SDS011;2229;48.708;9.706;2024-03-22T12:57:51;2.80;;;1.63;;
4432;SDS011;2229;48.708;9.706;2024-03-22T13:00:22;2.63;;;1.43;;
4432;SDS011;2229;48.708;9.706;2024-03-22T13:02:48;4.10;;;1.97;;
4432;SDS011;2229;48.708;9.706;2024-03-22T13:05:17;4.87;;;2.00;;
4432;SDS011;2229;48.708;9.706;2024-03-22T13:07:44;3.50;;;2.00;;
4432;SDS011;2229;48.708;9.706;2024-03-22T13:10:11;2.73;;;1.53;;
4432;SDS011;2229;48.708;9.706;2024-03-22T13:12:37;2.77;;;1.20;;
4432;SDS011;2229;48.708;9.706;2024-03-22T13:15:04;2.17;;;1.33;;
4432;SDS011;2229;48.708;9.706;2024-03-22T13:17:33;6.33;;;2.17;;
4432;SDS011;2229;48.708;9.706;2024-03-22T13:20:00;2.80;;;1.77;;
4432;SDS011;2229;48.708;9.706;2024-03-22T13:22:26;3.73;;;2.57;;
4432;SDS011;2229;48.708;9.706;2024-03-22T13:24:53;4.67;;;1.83;;
4432;SDS011;2229;48.708;9.706;2024-03-22T13:27:20;10.07;;;2.33;;
4432;SDS011;2229;48.708;9.706;2024-03-22T13:29:48;5.40;;;1.80;;
4432;SDS011;2229;48.708;9.706;2024-03-22T13:32:15;2.37;;;1.67;;
4432;SDS011;2229;48.708;9.706;2024-03-22T13:34:43;2.87;;;1.83;;
4432;SDS011;2229;48.708;9.706;2024-03-22T13:37:09;5.27;;;2.07;;
4432;SDS011;2229;48.708;9.706;2024-03-22T13:39:36;3.90;;;2.40;;
4432;SDS011;2229;48.708;9.706;2024-03-22T13:42:02;4.37;;;2.03;;
4432;SDS011;2229;48.708;9.706;2024-03-22T13:44:31;3.83;;;2.20;;
4432;SDS011;2229;48.708;9.706;2024-03-22T13:46:57;3.40;;;1.90;;
4432;SDS011;2229;48.708;9.706;2024-03-22T13:49:25;3.30;;;1.87;;
4432;SDS011;2229;48.708;9.706;2024-03-22T13:51:52;8.47;;;1.70;;
4432;SDS011;2229;48.708;9.706;2024-03-22T13:54:19;3.90;;;1.97;;
4432;SDS011;2229;48.708;9.706;2024-03-22T13:56:45;3.47;;;1.70;;
4432;SDS011;2229;48.708;9.706;2024-03-22T13:59:13;3.63;;;1.97;;
4432;SDS011;2229;48.708;9.706;2024-03-22T14:01:41;3.23;;;1.50;;
4432;SDS011;2229;48.708;9.706;2024-03-22T14:04:11;4.77;;;2.53;;
4432;SDS011;2229;48.708;9.706;2024-03-22T14:06:37;2.67;;;1.30;;
4432;SDS011;2229;48.708;9.706;2024-03-22T14:09:07;4.17;;;1.43;;
4432;SDS011;2229;48.708;9.706;2024-03-22T14:11:35;4.00;;;1.70;;
4432;SDS011;2229;48.708;9.706;2024-03-22T14:14:03;2.90;;;1.80;;
4432;SDS011;2229;48.708;9.706;2024-03-22T14:16:29;4.00;;;2.30;;
4432;SDS011;2229;48.708;9.706;2024-03-22T14:18:56;3.20;;;1.43;;
4432;SDS011;2229;48.708;9.706;2024-03-22T14:21:23;4.10;;;2.03;;
4432;SDS011;2229;48.708;9.706;2024-03-22T14:23:50;5.10;;;2.13;;
4432;SDS011;2229;48.708;9.706;2024-03-22T14:26:19;6.00;;;3.00;;
4432;SDS011;2229;48.708;9.706;2024-03-22T14:28:45;3.40;;;1.90;;
4432;SDS011;2229;48.708;9.706;2024-03-22T14:31:13;7.50;;;2.43;;
4432;SDS011;2229;48.708;9.706;2024-03-22T14:33:39;3.17;;;2.00;;
4432;SDS011;2229;48.708;9.706;2024-03-22T14:36:07;3.20;;;1.70;;
4432;SDS011;2229;48.708;9.706;2024-03-22T14:38:34;7.40;;;2.10;;
4432;SDS011;2229;48.708;9.706;2024-03-22T14:41:02;2.00;;;1.10;;
4432;SDS011;2229;48.708;9.706;2024-03-22T14:43:30;3.60;;;2.30;;
4432;SDS011;2229;48.708;9.706;2024-03-22T14:45:59;6.03;;;1.50;;
4432;SDS011;2229;48.708;9.706;2024-03-22T14:48:27;2.83;;;1.50;;
4432;SDS011;2229;48.708;9.706;2024-03-22T14:50:53;3.27;;;1.60;;
4432;SDS011;2229;48.708;9.706;2024-03-22T14:53:21;2.77;;;1.80;;
4432;SDS011;2229;48.708;9.706;2024-03-22T14:55:54;2.60;;;1.53;;
4432;SDS011;2229;48.708;9.706;2024-03-22T14:58:23;2.00;;;1.17;;
4432;SDS011;2229;48.708;9.706;2024-03-22T15:00:54;2.50;;;1.70;;
4432;SDS011;2229;48.708;9.706;2024-03-22T15:03:22;2.53;;;1.47;;
4432;SDS011;2229;48.708;9.706;2024-03-22T15:05:49;2.53;;;1.17;;
4432;SDS011;2229;48.708;9.706;2024-03-22T15:08:17;3.10;;;1.30;;
4432;SDS011;2229;48.708;9.706;2024-03-22T15:10:44;2.50;;;1.27;;
4432;SDS011;2229;48.708;9.706;2024-03-22T15:13:11;2.67;;;1.27;;
4432;SDS011;2229;48.708;9.706;2024-03-22T15:15:38;5.03;;;2.23;;
4432;SDS011;2229;48.708;9.706;2024-03-22T15:18:06;3.93;;;1.50;;
4432;SDS011;2229;48.708;9.706;2024-03-22T15:20:33;3.40;;;1.17;;
4432;SDS011;2229;48.708;9.706;2024-03-22T15:23:00;3.20;;;1.87;;
4432;SDS011;2229;48.708;9.706;2024-03-22T15:25:26;2.37;;;1.40;;
4432;SDS011;2229;48.708;9.706;2024-03-22T15:27:54;3.73;;;1.40;;
4432;SDS011;2229;48.708;9.706;2024-03-22T15:30:20;2.00;;;1.13;;
4432;SDS011;2229;48.708;9.706;2024-03-22T15:32:47;3.47;;;1.30;;
4432;SDS011;2229;48.708;9.706;2024-03-22T15:35:15;1.80;;;1.10;;
4432;SDS011;2229;48.708;9.706;2024-03-22T15:37:44;1.83;;;1.13;;
4432;SDS011;2229;48.708;9.706;2024-03-22T15:40:11;2.83;;;1.00;;
4432;SDS011;2229;48.708;9.706;2024-03-22T15:42:39;4.43;;;1.00;;
4432;SDS011;2229;48.708;9.706;2024-03-22T15:45:06;4.90;;;1.27;;
4432;SDS011;2229;48.708;9.706;2024-03-22T15:47:34;3.93;;;1.40;;
4432;SDS011;2229;48.708;9.706;2024-03-22T15:50:00;2.00;;;1.10;;
4432;SDS011;2229;48.708;9.706;2024-03-22T15:52:29;2.63;;;1.53;;
4432;SDS011;2229;48.708;9.706;2024-03-22T15:54:55;2.40;;;1.30;;
4432;SDS011;2229;48.708;9.706;2024-03-22T15:57:23;1.93;;;1.10;;
4432;SDS011;2229;48.708;9.706;2024-03-22T15:59:49;2.40;;;1.67;;
4432;SDS011;2229;48.708;9.706;2024-03-22T16:02:16;3.80;;;1.20;;
4432;SDS011;2229;48.708;9.706;2024-03-22T16:04:42;3.87;;;1.67;;
4432;SDS011;2229;48.708;9.706;2024-03-22T16:07:10;3.33;;;1.67;;
4432;SDS011;2229;48.708;9.706;2024-03-22T16:09:37;2.93;;;1.93;;
4432;SDS011;2229;48.708;9.706;2024-03-22T16:12:05;4.50;;;1.83;;
4432;SDS011;2229;48.708;9.706;2024-03-22T16:14:32;5.43;;;2.17;;
4432;SDS011;2229;48.708;9.706;2024-03-22T16:16:59;3.80;;;1.90;;
4432;SDS011;2229;48.708;9.706;2024-03-22T16:19:25;2.77;;;1.53;;